Time;durP1;ratioP1;P1;durP2;ratioP2;P2;SDS_P1;SDS_P2;PMS_P1;PMS_P2;Temp;Humidity;BMP_temperature;BMP_pressure;BME280_temperature;BME280_humidity;BME280_pressure;Samples;Min_cycle;Max_cycle;Signal;HPM_P1;HPM_P2
2022/05/13 00:00:34;;;;;;;16.95;10.18;;;16.90;99.90;;;;;;5012879;28;20436;-67
2022/05/13 00:03:02;;;;;;;17.42;9.68;;;16.90;99.90;;;;;;5013706;28;20034;-67
2022/05/13 00:05:28;;;;;;;23.10;11.57;;;16.90;99.90;;;;;;5013580;28;20126;-68
2022/05/13 00:07:53;;;;;;;21.48;10.85;;;16.60;99.90;;;;;;5013189;28;20038;-69
2022/05/13 00:10:19;;;;;;;21.70;11.27;;;16.60;99.90;;;;;;5012277;28;20040;-69
2022/05/13 00:12:45;;;;;;;16.92;9.95;;;16.60;99.90;;;;;;5012779;28;20534;-67
2022/05/13 00:15:15;;;;;;;21.52;10.55;;;16.60;99.90;;;;;;5013811;28;20034;-70
2022/05/13 00:17:41;;;;;;;22.92;10.60;;;16.60;99.90;;;;;;5012976;28;20459;-67
2022/05/13 00:20:08;;;;;;;18.73;11.10;;;16.60;99.90;;;;;;5012845;28;20105;-65
2022/05/13 00:22:34;;;;;;;16.60;10.65;;;16.60;99.90;;;;;;5012435;28;20114;-69
2022/05/13 00:25:00;;;;;;;19.38;10.23;;;16.50;99.90;;;;;;5013001;28;20061;-69
2022/05/13 00:27:26;;;;;;;22.67;10.57;;;16.50;99.90;;;;;;5012948;28;20563;-66
2022/05/13 00:29:52;;;;;;;17.23;10.45;;;16.40;99.90;;;;;;5013336;28;20041;-68
2022/05/13 00:32:18;;;;;;;21.65;11.13;;;16.50;99.90;;;;;;5012647;28;20026;-66
2022/05/13 00:34:45;;;;;;;17.05;9.30;;;16.50;99.90;;;;;;5012420;28;20065;-67
2022/05/13 00:37:10;;;;;;;18.15;9.15;;;16.50;99.90;;;;;;5012611;28;20061;-66
2022/05/13 00:39:36;;;;;;;16.73;9.13;;;16.40;99.90;;;;;;5012696;28;20064;-69
2022/05/13 00:42:08;;;;;;;20.65;10.32;;;16.30;99.90;;;;;;5012861;28;20026;-67
2022/05/13 00:44:34;;;;;;;21.00;11.35;;;16.20;99.90;;;;;;5011985;28;20367;-66
2022/05/13 00:47:01;;;;;;;17.75;10.45;;;16.10;99.90;;;;;;5011903;28;20073;-69
2022/05/13 00:49:28;;;;;;;18.52;10.50;;;16.20;99.90;;;;;;5012415;28;20380;-66
2022/05/13 00:51:54;;;;;;;18.83;11.02;;;16.10;99.90;;;;;;5012427;28;20100;-68
2022/05/13 00:54:20;;;;;;;19.58;11.23;;;16.20;99.90;;;;;;5012312;28;20024;-67
2022/05/13 00:56:47;;;;;;;20.42;11.15;;;16.20;99.90;;;;;;5012504;28;20034;-67
2022/05/13 00:59:20;;;;;;;24.48;13.27;;;16.20;99.90;;;;;;5012669;28;20058;-67
2022/05/13 01:01:48;;;;;;;18.30;11.07;;;16.30;99.90;;;;;;5012331;28;20487;-69
2022/05/13 01:04:16;;;;;;;25.88;12.70;;;16.30;99.90;;;;;;5012305;28;20496;-71
2022/05/13 01:06:47;;;;;;;19.05;12.07;;;16.30;99.90;;;;;;5011858;28;20046;-68
2022/05/13 01:09:15;;;;;;;21.58;12.90;;;16.30;99.90;;;;;;5012347;28;20101;-68
2022/05/13 01:11:43;;;;;;;25.50;12.93;;;16.30;99.90;;;;;;5012102;28;20026;-64
2022/05/13 01:14:14;;;;;;;22.70;13.05;;;16.30;99.90;;;;;;5012140;28;20033;-68
2022/05/13 01:19:25;;;;;;;28.38;13.40;;;16.30;99.90;;;;;;5012047;28;20297;-67
2022/05/13 01:21:51;;;;;;;19.08;12.13;;;16.20;99.90;;;;;;5012171;28;20527;-68
2022/05/13 01:24:21;;;;;;;22.83;11.95;;;16.30;99.90;;;;;;5012275;28;20040;-66
2022/05/13 01:26:47;;;;;;;17.60;10.75;;;16.30;99.90;;;;;;5012936;28;20472;-68
2022/05/13 01:29:14;;;;;;;20.95;10.70;;;16.20;99.90;;;;;;5011189;28;20029;-66
2022/05/13 01:31:43;;;;;;;24.08;12.10;;;16.20;99.90;;;;;;5011847;28;20029;-70
2022/05/13 01:34:12;;;;;;;18.92;10.75;;;16.20;99.90;;;;;;5011971;28;20035;-65
2022/05/13 01:36:40;;;;;;;27.08;11.82;;;16.20;99.90;;;;;;5012257;28;20378;-66
2022/05/13 01:39:07;;;;;;;18.20;12.05;;;16.10;99.90;;;;;;5009263;28;20036;-67
2022/05/13 01:41:34;;;;;;;19.42;10.82;;;16.10;99.90;;;;;;4995982;28;20046;-67
2022/05/13 01:44:00;;;;;;;18.70;10.65;;;16.10;99.90;;;;;;4994444;28;20514;-69
2022/05/13 01:46:27;;;;;;;19.98;11.02;;;16.00;99.90;;;;;;5011807;28;20057;-67
2022/05/13 01:48:53;;;;;;;21.75;10.70;;;16.00;99.90;;;;;;5011809;28;20030;-68
2022/05/13 01:51:20;;;;;;;28.52;11.00;;;16.00;99.90;;;;;;5025221;28;20022;-66
2022/05/13 01:53:46;;;;;;;15.70;9.77;;;16.00;99.90;;;;;;5031432;28;20049;-65
2022/05/13 01:56:12;;;;;;;19.10;11.23;;;15.90;99.90;;;;;;5031400;28;20026;-69
2022/05/13 01:58:38;;;;;;;31.58;11.13;;;15.90;99.90;;;;;;5031443;28;20551;-66
2022/05/13 02:01:07;;;;;;;18.30;11.18;;;15.80;99.90;;;;;;5033301;28;20022;-66
2022/05/13 02:03:44;;;;;;;18.58;10.48;;;15.80;99.90;;;;;;5015481;28;20108;-67
2022/05/13 02:06:15;;;;;;;23.25;12.15;;;15.80;99.90;;;;;;5031782;28;20033;-68
2022/05/13 02:08:41;;;;;;;16.42;9.18;;;15.70;99.90;;;;;;5033657;28;20033;-68
2022/05/13 02:11:07;;;;;;;19.17;9.82;;;15.70;99.90;;;;;;5031537;28;20582;-68
2022/05/13 02:13:34;;;;;;;16.95;10.38;;;15.60;99.90;;;;;;5031361;28;20029;-68
2022/05/13 02:16:00;;;;;;;19.67;11.45;;;15.70;99.90;;;;;;5031233;28;20022;-69
2022/05/13 02:18:28;;;;;;;27.98;11.60;;;15.60;99.90;;;;;;5031357;28;20028;-65
2022/05/13 02:20:55;;;;;;;21.08;11.18;;;15.60;99.90;;;;;;5031333;28;20028;-69
2022/05/13 02:23:22;;;;;;;21.70;9.98;;;15.60;99.90;;;;;;5031327;28;20037;-67
2022/05/13 02:25:51;;;;;;;18.33;10.88;;;15.60;99.90;;;;;;5033362;28;20029;-66
2022/05/13 02:28:18;;;;;;;19.27;11.13;;;15.60;99.90;;;;;;5031753;28;20060;-63
2022/05/13 02:30:44;;;;;;;17.92;11.27;;;15.50;99.90;;;;;;5031235;28;20029;-65
2022/05/13 02:33:10;;;;;;;19.90;12.68;;;15.40;99.90;;;;;;5025072;28;20493;-67
2022/05/13 02:35:36;;;;;;;17.00;11.20;;;15.40;99.90;;;;;;5011268;28;20018;-65
2022/05/13 02:38:02;;;;;;;19.65;12.65;;;15.40;99.90;;;;;;5015839;28;20037;-66
2022/05/13 02:43:12;;;;;;;18.05;11.55;;;15.20;99.90;;;;;;5031283;28;20038;-68
2022/05/13 02:45:39;;;;;;;20.83;11.57;;;15.00;99.90;;;;;;5030718;28;20051;-69
2022/05/13 02:48:06;;;;;;;20.80;12.55;;;14.90;99.90;;;;;;5030952;28;20443;-68
2022/05/13 02:50:32;;;;;;;22.08;12.77;;;14.80;99.90;;;;;;5034420;28;20032;-70
2022/05/13 02:52:59;;;;;;;24.63;13.05;;;14.80;99.90;;;;;;5034449;28;20029;-65
2022/05/13 02:55:26;;;;;;;22.65;11.85;;;14.70;99.90;;;;;;5034696;28;20025;-68
2022/05/13 02:57:51;;;;;;;17.95;12.40;;;14.70;99.90;;;;;;5034392;28;20112;-68
2022/05/13 03:00:17;;;;;;;20.40;12.45;;;14.70;99.90;;;;;;5034568;28;20144;-65
2022/05/13 03:02:43;;;;;;;20.45;11.82;;;14.70;99.90;;;;;;5019470;28;20057;-65
2022/05/13 03:05:10;;;;;;;25.50;12.40;;;14.80;99.90;;;;;;5014384;28;20462;-69
2022/05/13 03:07:36;;;;;;;22.05;12.23;;;14.70;99.90;;;;;;5014667;28;20042;-65
2022/05/13 03:10:05;;;;;;;22.08;11.93;;;14.80;99.90;;;;;;5014621;28;20029;-70
2022/05/13 03:12:31;;;;;;;18.08;11.30;;;14.70;99.90;;;;;;5014401;28;20053;-70
2022/05/13 03:14:57;;;;;;;18.60;11.70;;;14.80;99.90;;;;;;5014489;28;20025;-66
2022/05/13 03:17:23;;;;;;;22.05;12.05;;;14.80;99.90;;;;;;5013469;28;20373;-69
2022/05/13 03:19:49;;;;;;;19.85;11.98;;;14.80;99.90;;;;;;5013895;28;20022;-68
2022/05/13 03:22:15;;;;;;;19.77;12.00;;;14.80;99.90;;;;;;5004445;28;20034;-63
2022/05/13 03:24:41;;;;;;;19.17;12.77;;;14.90;99.90;;;;;;4994301;28;20027;-67
2022/05/13 03:27:07;;;;;;;21.00;13.20;;;14.90;99.90;;;;;;4994985;28;20482;-63
2022/05/13 03:29:35;;;;;;;18.17;10.82;;;15.00;99.90;;;;;;4994427;28;20033;-68
2022/05/13 03:32:05;;;;;;;14.52;10.18;;;15.30;99.90;;;;;;4994895;28;20081;-63
2022/05/13 03:34:31;;;;;;;18.10;10.45;;;15.50;99.90;;;;;;5003120;28;20112;-62
2022/05/13 03:36:58;;;;;;;19.48;11.23;;;15.80;99.90;;;;;;5013960;28;20100;-65
2022/05/13 03:39:24;;;;;;;19.80;11.40;;;16.30;99.90;;;;;;5011056;28;20026;-67
2022/05/13 03:41:50;;;;;;;17.75;9.73;;;16.70;99.90;;;;;;5013660;28;20084;-69
2022/05/13 03:44:18;;;;;;;16.60;10.25;;;17.10;99.90;;;;;;5013816;28;20025;-68
2022/05/13 03:46:44;;;;;;;20.60;10.90;;;17.60;99.90;;;;;;5013363;28;20037;-63
2022/05/13 03:49:10;;;;;;;18.80;10.93;;;18.10;99.90;;;;;;5014096;28;20030;-69
2022/05/13 03:51:36;;;;;;;20.55;11.07;;;18.90;99.90;;;;;;5022376;28;20111;-66
2022/05/13 03:54:03;;;;;;;18.35;11.25;;;19.20;99.90;;;;;;5033101;28;20057;-66
2022/05/13 03:56:29;;;;;;;18.70;10.93;;;19.40;99.90;;;;;;5033428;28;20032;-69
2022/05/13 03:58:56;;;;;;;16.83;10.75;;;19.90;99.90;;;;;;5033298;28;20026;-69
2022/05/13 04:01:22;;;;;;;21.58;11.35;;;20.30;99.90;;;;;;5021744;28;20037;-69
2022/05/13 04:03:48;;;;;;;19.98;10.85;;;20.70;99.90;;;;;;5014233;28;20033;-70
2022/05/13 04:09:01;;;;;;;15.45;9.82;;;21.50;99.40;;;;;;5011067;28;20040;-69
2022/05/13 04:11:34;;;;;;;16.33;9.70;;;21.80;98.70;;;;;;5012637;28;20111;-70
2022/05/13 04:16:44;;;;;;;14.60;8.77;;;22.70;94.50;;;;;;5012187;28;20061;-69
2022/05/13 04:19:11;;;;;;;12.18;8.40;;;22.90;92.90;;;;;;5012574;28;20026;-70
2022/05/13 04:21:38;;;;;;;14.88;9.82;;;23.50;92.60;;;;;;5015984;28;20034;-69
2022/05/13 04:24:08;;;;;;;15.98;9.15;;;23.60;92.30;;;;;;5019694;28;20018;-66
2022/05/13 04:26:35;;;;;;;18.00;8.93;;;24.00;91.00;;;;;;5014632;28;20030;-67
2022/05/13 04:29:02;;;;;;;13.52;9.00;;;24.00;90.30;;;;;;5013005;28;20064;-67
2022/05/13 04:31:31;;;;;;;11.40;8.07;;;24.30;87.80;;;;;;5013971;28;20108;-67
2022/05/13 04:33:58;;;;;;;13.32;8.85;;;25.30;85.10;;;;;;4998132;28;20026;-65
2022/05/13 04:36:26;;;;;;;16.98;8.32;;;26.10;82.30;;;;;;5012381;28;20038;-64
2022/05/13 04:38:53;;;;;;;14.75;8.90;;;26.30;79.30;;;;;;5012391;28;20029;-69
2022/05/13 04:44:05;;;;;;;13.88;8.70;;;26.70;76.20;;;;;;5013107;28;20045;-69
2022/05/13 04:46:32;;;;;;;14.80;9.25;;;27.00;74.90;;;;;;5012347;28;20041;-70
2022/05/13 04:48:59;;;;;;;14.05;8.65;;;27.20;73.90;;;;;;5012190;28;20096;-68
2022/05/13 04:51:26;;;;;;;14.15;9.25;;;27.70;73.30;;;;;;5012195;28;20431;-70
2022/05/13 04:53:54;;;;;;;14.25;8.07;;;27.50;71.90;;;;;;5012915;28;20032;-68
2022/05/13 04:56:21;;;;;;;18.45;9.02;;;27.50;71.60;;;;;;5012443;28;20040;-68
2022/05/13 04:58:47;;;;;;;14.35;8.77;;;27.30;72.10;;;;;;5013059;28;20437;-69
2022/05/13 05:01:14;;;;;;;15.43;9.45;;;25.50;74.00;;;;;;5012315;28;20022;-70
2022/05/13 05:03:40;;;;;;;15.10;9.35;;;24.80;77.00;;;;;;5012286;28;20030;-69
2022/05/13 05:06:08;;;;;;;13.63;8.93;;;24.60;79.60;;;;;;5012830;28;20018;-69
2022/05/13 05:08:34;;;;;;;16.08;9.82;;;24.20;82.20;;;;;;5012461;28;20038;-68
2022/05/13 05:11:02;;;;;;;17.98;9.52;;;23.80;85.00;;;;;;5012826;28;20025;-69
2022/05/13 05:13:38;;;;;;;14.57;8.77;;;23.30;88.40;;;;;;5011551;28;20577;-69
2022/05/13 05:16:06;;;;;;;13.15;8.40;;;23.40;89.50;;;;;;5012676;28;20101;-69
2022/05/13 05:18:33;;;;;;;16.27;8.50;;;23.50;90.30;;;;;;5010962;28;20034;-69
2022/05/13 05:20:59;;;;;;;16.33;9.55;;;23.40;91.20;;;;;;5012518;28;20463;-69
2022/05/13 05:23:29;;;;;;;17.58;9.20;;;23.30;92.80;;;;;;5017292;28;20050;-69
2022/05/13 05:25:55;;;;;;;13.75;8.70;;;23.30;92.70;;;;;;5011835;28;20476;-69
2022/05/13 05:28:21;;;;;;;16.20;8.65;;;23.40;93.40;;;;;;5011926;28;20041;-71
2022/05/13 05:30:48;;;;;;;19.95;9.07;;;23.10;94.40;;;;;;5012418;28;20022;-68
2022/05/13 05:33:14;;;;;;;17.77;8.48;;;22.90;95.20;;;;;;5012397;28;20045;-69
2022/05/13 05:35:40;;;;;;;15.68;9.50;;;22.90;94.30;;;;;;5011646;28;20018;-70
2022/05/13 05:38:07;;;;;;;19.55;9.00;;;22.80;96.50;;;;;;5012255;28;20037;-70
2022/05/13 05:40:35;;;;;;;21.08;8.20;;;22.90;96.20;;;;;;5010696;28;20105;-69
2022/05/13 05:43:05;;;;;;;13.95;8.32;;;23.20;96.90;;;;;;5012108;28;20038;-70
2022/05/13 05:45:32;;;;;;;16.42;8.07;;;23.10;97.40;;;;;;5011552;28;20045;-70
2022/05/13 05:47:58;;;;;;;17.50;7.95;;;23.40;95.40;;;;;;5011739;28;20048;-69
2022/05/13 05:50:24;;;;;;;17.20;8.57;;;23.40;95.20;;;;;;5011467;28;20055;-69
2022/05/13 05:52:50;;;;;;;18.05;8.43;;;23.50;95.60;;;;;;5010887;28;20131;-66
2022/05/13 05:58:06;;;;;;;13.50;8.43;;;23.80;94.50;;;;;;5011144;28;20033;-70
2022/05/13 06:00:34;;;;;;;16.55;8.57;;;24.10;94.20;;;;;;5011734;28;20115;-71
2022/05/13 06:03:01;;;;;;;18.25;8.15;;;24.30;93.80;;;;;;5011157;28;20041;-70
2022/05/13 06:05:27;;;;;;;17.50;10.27;;;24.10;91.80;;;;;;5011132;28;20022;-70
2022/05/13 06:08:00;;;;;;;15.60;9.52;;;23.90;94.00;;;;;;5012362;28;20038;-69
2022/05/13 06:10:27;;;;;;;15.32;9.05;;;24.10;95.20;;;;;;5011152;28;20029;-70
2022/05/13 06:12:53;;;;;;;19.50;9.10;;;24.40;94.70;;;;;;5011869;28;20091;-70
2022/05/13 06:15:19;;;;;;;18.33;9.05;;;24.70;95.90;;;;;;5012097;28;20029;-70
2022/05/13 06:17:51;;;;;;;16.45;8.40;;;24.70;93.20;;;;;;5011296;28;20494;-70
2022/05/13 06:20:21;;;;;;;13.05;8.38;;;24.60;91.80;;;;;;5020713;28;20391;-69
2022/05/13 06:22:46;;;;;;;16.30;8.50;;;24.70;91.40;;;;;;5017940;28;20528;-70
2022/05/13 06:25:14;;;;;;;19.92;9.20;;;24.70;91.70;;;;;;5014555;28;20049;-71
2022/05/13 06:27:41;;;;;;;18.13;8.80;;;24.70;90.80;;;;;;5014563;28;20038;-70
2022/05/13 06:30:10;;;;;;;15.63;7.55;;;24.80;91.70;;;;;;5015600;28;20076;-70
2022/05/13 06:32:36;;;;;;;14.73;6.28;;;24.70;88.20;;;;;;5015306;28;20070;-69
2022/05/13 06:35:03;;;;;;;12.18;6.90;;;24.50;90.10;;;;;;5015260;28;20026;-66
2022/05/13 06:37:30;;;;;;;20.67;7.78;;;24.60;89.80;;;;;;5015103;28;20036;-69
2022/05/13 06:39:56;;;;;;;17.73;6.72;;;24.80;88.00;;;;;;5015225;28;20050;-68
2022/05/13 06:42:22;;;;;;;12.13;7.35;;;24.90;91.60;;;;;;5015442;28;20041;-69
2022/05/13 06:44:48;;;;;;;13.13;6.30;;;25.10;90.00;;;;;;5015158;28;20014;-70
2022/05/13 06:47:15;;;;;;;15.50;7.00;;;25.00;90.00;;;;;;5015456;28;20096;-70
2022/05/13 06:49:41;;;;;;;9.63;5.68;;;24.80;86.00;;;;;;5026235;28;20029;-70
2022/05/13 06:52:13;;;;;;;11.82;6.53;;;25.20;91.60;;;;;;5016745;28;20029;-69
2022/05/13 06:54:41;;;;;;;16.00;6.80;;;25.10;90.20;;;;;;5015858;28;20026;-66
2022/05/13 06:57:08;;;;;;;16.13;6.43;;;25.10;86.70;;;;;;5014840;28;20448;-69
2022/05/13 06:59:34;;;;;;;19.70;6.47;;;25.10;88.40;;;;;;5014423;28;20018;-69
2022/05/13 07:02:00;;;;;;;16.90;6.65;;;25.20;88.00;;;;;;5013922;28;20033;-70
2022/05/13 07:04:26;;;;;;;13.88;6.78;;;25.30;87.90;;;;;;5014454;28;20030;-69
2022/05/13 07:06:52;;;;;;;14.68;7.13;;;25.50;87.20;;;;;;5013746;28;20029;-70
2022/05/13 07:09:17;;;;;;;12.07;6.35;;;25.70;87.80;;;;;;5014511;28;20050;-67
2022/05/13 07:11:46;;;;;;;14.23;6.78;;;25.80;87.30;;;;;;5014635;28;20439;-69
2022/05/13 07:14:12;;;;;;;17.17;6.32;;;26.00;85.50;;;;;;5014334;28;20387;-69
2022/05/13 07:16:39;;;;;;;15.10;5.85;;;26.00;86.10;;;;;;5014297;28;20428;-70
2022/05/13 07:19:05;;;;;;;17.30;6.57;;;26.30;87.10;;;;;;5014459;28;20029;-70
2022/05/13 07:21:31;;;;;;;18.65;6.13;;;26.40;84.30;;;;;;5013755;28;20026;-68
2022/05/13 07:23:57;;;;;;;12.38;6.20;;;26.40;85.60;;;;;;5014125;28;20038;-64
2022/05/13 07:26:23;;;;;;;12.38;5.82;;;26.60;85.30;;;;;;5014964;28;20021;-70
2022/05/13 07:28:49;;;;;;;14.25;7.18;;;26.60;80.70;;;;;;5014508;28;20141;-70
2022/05/13 07:31:15;;;;;;;12.20;5.38;;;26.50;79.30;;;;;;5014539;28;20030;-67
2022/05/13 07:33:41;;;;;;;13.15;5.60;;;26.70;83.70;;;;;;5027116;28;20492;-70
2022/05/13 07:36:07;;;;;;;11.50;5.75;;;26.70;81.90;;;;;;5032764;28;20349;-69
2022/05/13 07:38:34;;;;;;;9.38;5.22;;;26.80;83.10;;;;;;5014041;28;20038;-67
2022/05/13 07:41:20;;;;;;;13.80;6.13;;;26.80;81.90;;;;;;5014388;28;20029;-69
2022/05/13 07:43:47;;;;;;;12.82;6.22;;;26.80;82.10;;;;;;5014569;28;20030;-69
2022/05/13 07:46:13;;;;;;;17.50;5.53;;;26.80;78.20;;;;;;5016887;28;20037;-69
2022/05/13 07:48:40;;;;;;;12.77;6.28;;;26.40;76.40;;;;;;5033803;28;20033;-69
2022/05/13 07:51:07;;;;;;;11.77;6.57;;;26.70;81.10;;;;;;5033650;28;20104;-69
2022/05/13 07:53:34;;;;;;;8.38;5.93;;;27.10;80.00;;;;;;5033249;28;20506;-69
2022/05/13 07:55:59;;;;;;;14.82;7.07;;;26.80;75.70;;;;;;5034026;28;20025;-70
2022/05/13 07:58:25;;;;;;;15.68;5.82;;;26.50;77.70;;;;;;5033776;28;20652;-70
2022/05/13 08:00:51;;;;;;;9.35;5.20;;;26.90;81.80;;;;;;5018914;28;20025;-70
2022/05/13 08:03:17;;;;;;;11.93;5.38;;;27.00;76.50;;;;;;5013831;28;20041;-69
2022/05/13 08:05:46;;;;;;;11.32;5.32;;;26.90;76.70;;;;;;5013957;28;20033;-67
2022/05/13 08:08:21;;;;;;;13.55;6.18;;;26.90;77.10;;;;;;5013748;28;20092;-69
2022/05/13 08:10:54;;;;;;;12.85;6.30;;;26.90;77.00;;;;;;5013446;28;20034;-69
2022/05/13 08:13:20;;;;;;;9.55;5.70;;;26.80;76.90;;;;;;5013166;28;20041;-70
2022/05/13 08:15:47;;;;;;;10.23;5.57;;;26.80;75.90;;;;;;5013989;28;20381;-70
2022/05/13 08:18:14;;;;;;;9.23;5.90;;;26.80;75.70;;;;;;5013519;28;20030;-69
2022/05/13 08:20:40;;;;;;;10.05;5.45;;;27.00;77.80;;;;;;5013724;28;20058;-69
2022/05/13 08:23:06;;;;;;;12.63;6.13;;;26.90;76.30;;;;;;5025302;28;20059;-70
2022/05/13 08:25:32;;;;;;;9.95;4.93;;;27.10;77.10;;;;;;5032906;28;20010;-69
2022/05/13 08:27:58;;;;;;;10.07;5.40;;;27.30;76.00;;;;;;5032985;28;20045;-70
2022/05/13 08:30:25;;;;;;;9.32;5.13;;;27.70;81.00;;;;;;5032560;28;20026;-70
2022/05/13 08:32:51;;;;;;;13.35;5.93;;;28.00;78.90;;;;;;5012685;28;20030;-69
2022/05/13 08:35:17;;;;;;;12.20;6.43;;;28.10;76.80;;;;;;5013180;28;20117;-70
2022/05/13 08:37:46;;;;;;;9.63;5.22;;;28.10;73.50;;;;;;5013154;28;20057;-68
2022/05/13 08:40:28;;;;;;;10.30;5.95;;;27.90;74.60;;;;;;5013035;28;20048;-70
2022/05/13 08:42:55;;;;;;;11.45;5.70;;;28.00;75.20;;;;;;5013345;28;20029;-69
2022/05/13 08:45:21;;;;;;;9.35;4.88;;;28.10;76.30;;;;;;5012540;28;20026;-68
2022/05/13 08:47:52;;;;;;;10.45;5.55;;;28.20;75.00;;;;;;5012798;28;20037;-69
2022/05/13 08:50:37;;;;;;;10.55;6.03;;;27.70;71.80;;;;;;5012788;28;20037;-69
2022/05/13 08:53:25;;;;;;;17.95;5.93;;;27.70;75.20;;;;;;5012661;28;20034;-68
2022/05/13 08:56:04;;;;;;;10.85;5.30;;;27.60;72.50;;;;;;5012346;28;20030;-70
2022/05/13 08:58:49;;;;;;;10.23;5.85;;;27.80;78.40;;;;;;5012334;28;20096;-69
2022/05/13 09:01:35;;;;;;;10.25;5.60;;;28.00;75.10;;;;;;5008963;28;20041;-70
2022/05/13 09:04:12;;;;;;;10.65;5.38;;;28.10;76.50;;;;;;5012929;28;20475;-69
2022/05/13 09:06:57;;;;;;;11.02;5.75;;;28.30;75.20;;;;;;5012757;28;20022;-70
2022/05/13 09:09:23;;;;;;;11.57;6.28;;;28.20;74.70;;;;;;5012571;28;20057;-71
2022/05/13 09:12:37;;;;;;;10.25;5.38;;;28.50;75.70;;;;;;5013160;28;20026;-66
2022/05/13 09:15:21;;;;;;;12.27;5.63;;;28.70;76.30;;;;;;4926251;29;20047;-67
2022/05/13 09:18:33;;;;;;;11.93;5.45;;;28.40;73.50;;;;;;4926198;29;20215;-69
2022/05/13 09:21:15;;;;;;;17.95;5.93;;;28.30;72.90;;;;;;4929416;29;20036;-69
2022/05/13 09:23:43;;;;;;;10.63;5.38;;;28.30;73.80;;;;;;4929561;29;20042;-68
2022/05/13 09:26:10;;;;;;;11.02;5.22;;;28.10;73.30;;;;;;4920936;29;20043;-68
2022/05/13 09:28:59;;;;;;;12.18;6.20;;;28.20;75.90;;;;;;4951755;29;20051;-70
2022/05/13 09:31:32;;;;;;;13.07;6.10;;;28.50;73.80;;;;;;4978099;28;20027;-70
2022/05/13 09:33:58;;;;;;;9.90;5.57;;;28.50;72.80;;;;;;4951634;29;20039;-68
2022/05/13 09:36:25;;;;;;;14.57;6.10;;;28.50;74.00;;;;;;4951762;29;20039;-69
2022/05/13 09:38:52;;;;;;;10.75;5.82;;;28.50;74.10;;;;;;4951700;29;20039;-70
2022/05/13 09:41:30;;;;;;;9.60;5.38;;;28.70;73.20;;;;;;4951889;29;20046;-69
2022/05/13 09:44:09;;;;;;;11.18;5.85;;;28.90;73.20;;;;;;4951760;29;20035;-70
2022/05/13 09:46:41;;;;;;;9.75;5.93;;;28.90;76.30;;;;;;5008909;28;20053;-66
2022/05/13 09:49:33;;;;;;;13.07;6.35;;;29.10;75.00;;;;;;5022778;28;20029;-70
2022/05/13 09:52:37;;;;;;;12.45;5.30;;;29.10;72.10;;;;;;5015808;28;20100;-70
2022/05/13 09:55:33;;;;;;;11.65;6.05;;;29.00;74.40;;;;;;4959231;28;20042;-70
2022/05/13 09:58:02;;;;;;;9.40;5.22;;;29.10;71.90;;;;;;4932542;29;20075;-68
2022/05/13 10:00:32;;;;;;;13.27;6.35;;;29.10;71.80;;;;;;4920268;29;20048;-65
2022/05/13 10:03:10;;;;;;;9.88;5.25;;;29.10;71.60;;;;;;4913472;29;20119;-70
2022/05/13 10:05:36;;;;;;;13.52;5.50;;;29.40;73.10;;;;;;4908892;29;20056;-66
2022/05/13 10:08:14;;;;;;;11.20;5.82;;;29.10;74.10;;;;;;4925142;29;20181;-66
2022/05/13 10:13:59;;;;;;;12.98;5.30;;;29.10;74.00;;;;;;4913191;29;20063;-70
2022/05/13 10:16:34;;;;;;;14.73;6.00;;;29.40;71.80;;;;;;4916180;29;20221;-70
2022/05/13 10:19:12;;;;;;;14.23;5.45;;;29.10;71.40;;;;;;4924976;29;20063;-69
2022/05/13 10:22:08;;;;;;;6.72;4.47;;;29.00;70.20;;;;;;4915630;29;20131;-70
2022/05/13 10:24:54;;;;;;;11.80;5.20;;;29.20;74.20;;;;;;4913202;29;20087;-67
2022/05/13 10:27:47;;;;;;;7.40;4.38;;;29.10;70.40;;;;;;4911485;29;20048;-67
2022/05/13 10:30:26;;;;;;;8.35;4.57;;;28.90;68.90;;;;;;4909409;29;20044;-65
2022/05/13 10:33:08;;;;;;;11.10;5.13;;;28.90;70.30;;;;;;4957078;28;20043;-69
2022/05/13 10:35:43;;;;;;;7.55;4.80;;;29.10;73.00;;;;;;5002129;28;20042;-70
2022/05/13 10:38:16;;;;;;;9.30;5.20;;;29.00;70.00;;;;;;5021328;28;20034;-69
2022/05/13 10:40:47;;;;;;;11.02;5.72;;;29.10;69.60;;;;;;4992236;28;20056;-71
2022/05/13 10:43:43;;;;;;;8.90;4.90;;;29.40;71.10;;;;;;5000109;28;20033;-70
2022/05/13 10:46:25;;;;;;;10.77;5.35;;;29.40;70.30;;;;;;4988089;28;20558;-71
2022/05/13 10:48:54;;;;;;;13.60;5.20;;;29.40;68.20;;;;;;4989801;28;20412;-71
2022/05/13 10:51:26;;;;;;;10.35;5.63;;;29.50;69.90;;;;;;5009229;28;20096;-71
2022/05/13 10:54:06;;;;;;;8.27;4.90;;;29.80;71.80;;;;;;5009609;28;20038;-70
2022/05/13 10:56:40;;;;;;;10.73;4.90;;;29.90;68.70;;;;;;5009452;28;20045;-71
2022/05/13 10:59:17;;;;;;;12.38;4.90;;;30.10;69.50;;;;;;5009546;28;20030;-70
2022/05/13 11:02:17;;;;;;;13.32;5.57;;;29.80;67.00;;;;;;5009416;28;20085;-71
2022/05/13 11:04:52;;;;;;;14.15;5.68;;;29.70;68.60;;;;;;4999682;28;20049;-71
2022/05/13 11:07:32;;;;;;;8.93;5.47;;;29.70;67.10;;;;;;4989465;28;20412;-70
2022/05/13 11:10:20;;;;;;;7.15;4.63;;;29.70;70.90;;;;;;4989503;28;20089;-71
2022/05/13 11:13:20;;;;;;;12.63;5.05;;;29.50;68.60;;;;;;4993141;28;20031;-70
2022/05/13 11:16:01;;;;;;;8.57;5.03;;;29.70;69.50;;;;;;5007839;28;20041;-71
2022/05/13 11:18:42;;;;;;;9.93;5.00;;;29.70;71.20;;;;;;4993233;28;20628;-69
2022/05/13 11:21:19;;;;;;;10.80;4.93;;;29.60;69.60;;;;;;4992420;28;20050;-71
2022/05/13 11:27:42;;;;;;;10.05;4.93;;;29.60;67.40;;;;;;4992512;28;20133;-72
2022/05/13 11:30:13;;;;;;;9.30;4.90;;;29.50;69.20;;;;;;4992133;28;20042;-70
2022/05/13 11:32:55;;;;;;;9.85;5.03;;;29.70;68.60;;;;;;4992824;28;20088;-72
2022/05/13 11:35:39;;;;;;;9.02;4.72;;;29.80;70.50;;;;;;4992779;28;20444;-69
2022/05/13 11:38:26;;;;;;;8.52;5.65;;;30.00;68.40;;;;;;4992547;28;20045;-71
2022/05/13 11:41:05;;;;;;;7.78;4.60;;;30.00;67.80;;;;;;4992855;28;20074;-70
2022/05/13 11:43:59;;;;;;;9.43;5.72;;;30.20;69.20;;;;;;4992754;28;20034;-71
2022/05/13 11:46:53;;;;;;;11.50;6.00;;;30.00;64.80;;;;;;4992668;28;20377;-71
2022/05/13 11:49:21;;;;;;;12.30;4.72;;;29.70;66.70;;;;;;4992218;28;20054;-70
2022/05/13 11:51:47;;;;;;;10.15;5.00;;;29.80;66.40;;;;;;4992326;28;20516;-69
2022/05/13 11:54:20;;;;;;;8.73;5.60;;;29.90;65.60;;;;;;4992337;28;20081;-71
2022/05/13 11:56:48;;;;;;;9.52;5.30;;;30.00;69.20;;;;;;4992556;28;20038;-71
2022/05/13 11:59:29;;;;;;;8.30;4.63;;;30.00;66.00;;;;;;4992602;28;20034;-70
2022/05/13 12:02:06;;;;;;;8.05;4.45;;;30.00;67.20;;;;;;5008197;28;20038;-71
2022/05/13 12:04:34;;;;;;;11.15;6.10;;;30.20;69.20;;;;;;5013617;28;20027;-70
2022/05/13 12:07:20;;;;;;;8.38;4.68;;;30.00;64.50;;;;;;5013812;28;20033;-71
2022/05/13 12:09:48;;;;;;;8.27;5.30;;;30.00;66.40;;;;;;4992138;28;20100;-70
2022/05/13 12:12:36;;;;;;;9.13;4.72;;;30.00;67.60;;;;;;4992044;28;20092;-71
2022/05/13 12:15:10;;;;;;;12.43;4.32;;;29.80;66.20;;;;;;4985732;28;20043;-71
2022/05/13 12:17:36;;;;;;;7.75;4.25;;;29.80;64.40;;;;;;4991724;28;20031;-71
2022/05/13 12:20:05;;;;;;;9.75;4.50;;;29.90;67.10;;;;;;4992157;28;20081;-71
2022/05/13 12:22:31;;;;;;;10.00;4.90;;;30.10;65.20;;;;;;4991504;28;20582;-72
2022/05/13 12:25:12;;;;;;;8.02;4.68;;;30.20;66.80;;;;;;4991823;28;20030;-65
2022/05/13 12:27:44;;;;;;;9.52;5.40;;;30.50;67.90;;;;;;4980799;28;20444;-66
2022/05/13 12:30:31;;;;;;;10.63;5.07;;;30.30;65.90;;;;;;4972370;28;20027;-65
2022/05/13 12:33:23;;;;;;;8.70;4.80;;;30.10;65.40;;;;;;4989355;28;20030;-68
2022/05/13 12:39:11;;;;;;;5.82;4.68;;;30.20;67.00;;;;;;4971970;28;20062;-68
2022/05/13 12:41:45;;;;;;;8.68;4.90;;;30.30;67.70;;;;;;4971979;28;20607;-65
2022/05/13 12:44:32;;;;;;;8.88;4.10;;;30.30;64.40;;;;;;4971888;28;20031;-71
2022/05/13 12:47:13;;;;;;;10.88;4.60;;;30.20;63.60;;;;;;5002692;28;20046;-71
2022/05/13 12:49:48;;;;;;;8.73;5.10;;;30.20;65.40;;;;;;5013461;28;20026;-71
2022/05/13 12:52:22;;;;;;;11.18;4.95;;;30.10;64.90;;;;;;5013054;28;20057;-69
2022/05/13 12:55:04;;;;;;;8.63;3.95;;;30.10;62.30;;;;;;5013334;28;20038;-70
2022/05/13 12:57:41;;;;;;;9.40;4.47;;;30.00;62.90;;;;;;5012787;28;20041;-69
2022/05/13 13:00:39;;;;;;;10.63;4.60;;;30.20;66.70;;;;;;5012636;28;20037;-71
2022/05/13 13:03:09;;;;;;;10.57;4.78;;;30.20;66.70;;;;;;5012354;28;20480;-71
2022/05/13 13:05:38;;;;;;;7.57;4.78;;;30.30;66.90;;;;;;5011885;28;20480;-69
2022/05/13 13:08:22;;;;;;;10.25;4.28;;;30.40;67.10;;;;;;5012035;28;20042;-71
2022/05/13 13:11:00;;;;;;;9.88;4.28;;;30.50;65.90;;;;;;5012234;28;20042;-71
2022/05/13 13:13:54;;;;;;;6.28;4.07;;;30.60;64.20;;;;;;5012326;28;20022;-71
2022/05/13 13:16:27;;;;;;;9.75;4.45;;;30.20;61.40;;;;;;5011733;28;20030;-72
2022/05/13 13:19:08;;;;;;;7.47;4.13;;;30.30;63.90;;;;;;5012222;28;20165;-65
2022/05/13 13:21:34;;;;;;;9.73;4.30;;;30.30;63.90;;;;;;5010730;28;20843;-67